Tri Cities Airport Pasco US
ICAO: KPSC
IATA: PSC
Category: Medium
Scheduled Services: Yes

Elevation: 410 ft
TransAlt. 18000 ft.

Airport Communications:
CHINOOK APP/DEP:128.75
ATIS:125.65
CLNC DEL:120
CTAF:135.3
GND:121.8
SEATTLE RDO:122.4
TWR:135.3
UNICOM:122.95

KPSC Zoom In..

If you have problems with the map follow the link
https://www.worldairports.se/pages/airport.php?
ICAO=KPSC

Runways:

(A) RW 03L length 7711 ft width 150 ft
---- / hdg 30

(B) RW 03R length 4423 ft width 75 ft
---- / hdg 30

(C) RW 12 length 7703 ft width 150 ft
---- / hdg 119

(D) RW 21L length 4423 ft width 75 ft
---- / hdg 210

(E) RW 21R length 7711 ft width 150 ft
ILS 108.70 / hdg 210

(F) RW 30 length 7703 ft width 150 ft
---- / hdg 299

Location; KPSC
Day. 18 / Time. 23.53 Zulu
* Altimeter: 30.17
* Temperature: 18° c. 64.4°f.
* Wind from: 100° Speed 05 kn.
Dewpoint: 06° c.
Visibility: 10 Statute Miles.
Clouds: Clear (automated report).

KPSC 182353Z 10005KT 10SM CLR 18/06 A3017 RMK AO2 SLP218 T01830056 10194 20100 57009


Wind From 100°
Speed 05 kn.

 
 
jpsmedia.com for Web Design worldairports.se 2018   terms of use